Aérodrome :
LOGIN :

S'inscrire | Disclaimer

   EN    FR    IT 

 










Légende :    VFR   VFR Marginal   IFR   IFR Intensif   IFR Très Intensif
Visi : 
Plafond : 
>= 8 km
>= 3000ft
5 à 8 km
1000 à 3000 ft
1500m à 5 km
500 à 1000 ft
800 à 1500m
200 à 500 ft
< 800m
< 200 ft
Symboles :   Orages  Brouillard  Fortes neiges  Fortes précipitations  Vent > 20 kt
SIGMETs :   Divers  Orages  Givrage  Turbulence  Onde Orograph.  Cendres Volcan.







- Altitude de l'aérodrome : 220 ft
- Code IATA : CWL
- Voir les cartes d'approche


EGFF - Cardiff Rhoose

DERNIER METAR :
  • 240420Z AUTO 01002KT 9999 NCD 06/02 Q1031

METARs EXPIRÉS :
  • 240350Z AUTO 03003KT 9999 SCT037 07/02 Q1031
  • 240320Z AUTO 03005KT 9999 OVC038 07/02 Q1031
  • 240250Z AUTO 04005KT 9999 OVC038 08/02 Q1031
  • 240220Z AUTO 05005KT 9999 OVC037 08/02 Q1032
  • 240150Z AUTO 04005KT 9999 OVC037 08/02 Q1032

TAF TAF EGFF
Valide du 24 à 00h jusqu'au 25 à 00h UTC


232258Z 2400/2424 VRB04KT 9999 FEW035
PROB30
TEMPO 2400/2406 8000 -RA
BECMG 2409/2412 30010KT
ATIS : +44 1446 729 319
Pas de NOTAMs connus pour ce terrain.



MET'MAP, la Météo Aéronautique d'un coup d'oeil ! - Copyright ORBIFLY Décembre 2007 - Disclaimer

ORBIFLY MET'MAP TEAM :

Programmation & Développement : Alexandra Zaïnal
Conception & Développement : Baudouin d'Aumeries
Co-Programmation & Développement : Marc-Olivier Méhu
Soutien technique & logistique : Manuel Goepfert

Contact : metmap@orbifly.com




SOURCES & CREDITS :

   NOAA